Time;durP1;ratioP1;P1;durP2;ratioP2;P2;SDS_P1;SDS_P2;PMS_P1;PMS_P2;Temp;Humidity;BMP_temperature;BMP_pressure;BME280_temperature;BME280_humidity;BME280_pressure;Samples;Min_cycle;Max_cycle;Signal;HPM_P1;HPM_P2
2023/04/24 00:02:13;;;;;;;1.30;1.20;;;;;;;17.17;51.18;97725.94;7003946;28;20284;-81
2023/04/24 00:05:37;;;;;;;1.43;1.33;;;;;;;17.45;50.02;97731.66;7003157;28;20229;-81
2023/04/24 00:08:58;;;;;;;1.33;1.33;;;;;;;17.68;49.77;97741.97;7014297;28;20349;-81
2023/04/24 00:12:21;;;;;;;1.80;1.70;;;;;;;17.50;50.33;97719.91;7031882;28;20254;-81
2023/04/24 00:15:44;;;;;;;1.60;1.50;;;;;;;17.52;49.58;97717.75;7033645;28;20229;-82
2023/04/24 00:19:06;;;;;;;1.23;1.23;;;;;;;17.40;50.60;97755.38;7032514;28;20299;-81
2023/04/24 00:22:29;;;;;;;1.93;1.80;;;;;;;17.41;50.40;97732.50;7008931;28;20839;-81
2023/04/24 00:25:50;;;;;;;2.00;1.60;;;;;;;16.81;50.50;97661.69;7034153;28;20697;-85
2023/04/24 00:29:13;;;;;;;1.50;1.40;;;;;;;17.23;49.97;97749.34;7032866;28;20334;-82
2023/04/24 00:32:35;;;;;;;1.97;1.60;;;;;;;17.46;48.94;97732.50;7033630;28;20303;-82
2023/04/24 00:35:56;;;;;;;1.63;1.53;;;;;;;17.28;49.95;97730.28;7036321;28;20312;-82
2023/04/24 00:39:17;;;;;;;2.80;2.00;;;;;;;17.24;49.88;97743.66;7035845;28;20296;-82
2023/04/24 00:42:40;;;;;;;1.33;1.23;;;;;;;16.97;50.33;97748.53;7037286;28;20288;-82
2023/04/24 00:46:03;;;;;;;1.83;1.50;;;;;;;17.10;49.78;97737.09;7039343;28;20225;-83
2023/04/24 00:49:24;;;;;;;5.40;1.50;;;;;;;17.13;49.96;97722.13;7039925;28;20228;-82
2023/04/24 00:52:46;;;;;;;3.37;1.43;;;;;;;17.32;50.14;97729.47;7046125;28;20228;-83
2023/04/24 00:56:08;;;;;;;1.60;1.50;;;;;;;17.31;50.34;97724.28;7053049;28;20229;-82
2023/04/24 00:59:29;;;;;;;1.93;1.57;;;;;;;17.41;49.32;97721.59;7038755;28;20230;-83
2023/04/24 01:02:53;;;;;;;1.40;1.40;;;;;;;16.94;50.75;97737.38;7031877;28;20292;-81
2023/04/24 01:06:14;;;;;;;2.30;1.43;;;;;;;16.99;50.48;97718.31;7035083;28;20212;-82
2023/04/24 01:09:36;;;;;;;1.60;1.40;;;;;;;17.05;50.36;97725.41;7034917;28;20204;-81
2023/04/24 01:12:59;;;;;;;1.60;1.50;;;;;;;17.19;49.81;97731.91;7038723;28;20681;-80
2023/04/24 01:16:20;;;;;;;3.17;1.70;;;;;;;16.81;50.07;97700.59;7062487;28;20220;-82
2023/04/24 01:19:44;;;;;;;1.50;1.40;;;;;;;17.34;49.13;97724.56;7058551;28;20215;-81
2023/04/24 01:23:07;;;;;;;1.60;1.50;;;;;;;17.40;49.26;97712.59;7024607;28;20204;-80
2023/04/24 01:26:28;;;;;;;1.83;1.50;;;;;;;17.43;48.81;97697.59;7020920;28;20202;-81
2023/04/24 01:29:51;;;;;;;1.73;1.50;;;;;;;17.30;48.68;97709.88;7015565;28;20723;-81
2023/04/24 01:33:13;;;;;;;1.43;1.33;;;;;;;17.17;49.87;97704.16;7013433;28;20194;-82
2023/04/24 01:36:36;;;;;;;2.07;1.70;;;;;;;17.18;50.15;97706.59;7014808;28;20273;-81
2023/04/24 01:39:58;;;;;;;3.80;1.53;;;;;;;17.25;49.42;97707.13;7014068;28;20205;-80
2023/04/24 01:43:20;;;;;;;3.07;1.47;;;;;;;17.01;50.19;97678.00;7012624;28;20239;-81
2023/04/24 01:46:42;;;;;;;1.43;1.40;;;;;;;16.85;51.54;97696.25;7013354;28;20276;-81
2023/04/24 01:50:04;;;;;;;1.33;1.20;;;;;;;17.00;50.31;97673.66;7013037;28;20233;-80
2023/04/24 01:53:25;;;;;;;1.93;1.50;;;;;;;17.34;49.96;97691.06;7011236;28;20324;-80
2023/04/24 01:56:48;;;;;;;1.93;1.50;;;;;;;17.10;50.84;97693.50;7017535;28;20272;-80
2023/04/24 02:00:11;;;;;;;1.30;1.30;;;;;;;17.23;50.31;97675.81;7038910;28;20233;-81
2023/04/24 02:03:33;;;;;;;1.70;1.60;;;;;;;17.28;50.03;97683.97;7033126;28;20226;-81
2023/04/24 02:06:54;;;;;;;6.40;1.50;;;;;;;17.12;49.80;97669.56;7016027;28;20292;-80
2023/04/24 02:10:16;;;;;;;2.63;1.60;;;;;;;16.70;50.95;97681.81;7009031;28;20685;-81
2023/04/24 02:13:39;;;;;;;2.83;1.47;;;;;;;16.81;51.05;97710.69;7025181;28;20308;-81
2023/04/24 02:17:00;;;;;;;2.23;1.37;;;;;;;16.67;50.21;97683.16;7010702;28;20224;-81
2023/04/24 02:20:22;;;;;;;1.63;1.53;;;;;;;17.17;50.05;97694.06;7015272;28;20217;-81
2023/04/24 02:23:44;;;;;;;4.23;1.57;;;;;;;16.93;50.50;97698.41;7034467;28;20308;-80
2023/04/24 02:27:05;;;;;;;1.30;1.23;;;;;;;16.95;50.46;97692.72;7035345;28;20719;-80
2023/04/24 02:30:28;;;;;;;2.73;1.93;;;;;;;16.66;50.13;97629.00;7036202;28;20208;-82
2023/04/24 02:33:50;;;;;;;2.50;1.40;;;;;;;17.22;49.99;97696.78;7034517;28;20281;-80
2023/04/24 02:37:11;;;;;;;1.47;1.33;;;;;;;16.71;51.08;97686.16;7034378;28;20367;-81
2023/04/24 02:40:33;;;;;;;2.00;1.37;;;;;;;16.86;50.53;97670.66;7034014;28;20259;-81
2023/04/24 02:43:54;;;;;;;2.17;1.97;;;;;;;16.88;50.70;97692.97;7033466;28;20374;-81
2023/04/24 02:47:17;;;;;;;6.17;1.67;;;;;;;17.00;49.98;97666.31;7032997;28;20357;-81
2023/04/24 02:50:39;;;;;;;3.03;1.50;;;;;;;16.75;50.55;97703.59;7033765;28;20835;-81
2023/04/24 02:54:00;;;;;;;1.60;1.50;;;;;;;16.91;50.43;97700.59;7033339;28;20300;-80
2023/04/24 02:57:22;;;;;;;3.23;1.43;;;;;;;16.99;50.26;97704.69;7032720;28;20270;-81
2023/04/24 03:00:44;;;;;;;1.50;1.50;;;;;;;16.85;49.72;97709.03;7005761;28;20296;-80
2023/04/24 03:04:07;;;;;;;3.17;1.50;;;;;;;16.98;50.28;97692.19;7007269;28;20238;-81
2023/04/24 03:07:28;;;;;;;1.90;1.40;;;;;;;17.43;50.18;97703.03;7013749;28;20288;-81
2023/04/24 03:10:50;;;;;;;1.50;1.40;;;;;;;17.47;50.10;97691.34;7054877;28;20207;-81
2023/04/24 03:14:11;;;;;;;1.43;1.33;;;;;;;16.94;51.25;97701.97;7061291;28;20599;-81
2023/04/24 03:17:33;;;;;;;1.37;1.37;;;;;;;16.98;51.83;97700.34;7062344;28;20323;-81
2023/04/24 03:20:56;;;;;;;1.57;1.47;;;;;;;16.86;52.33;97694.34;7062246;28;20279;-81
2023/04/24 03:24:17;;;;;;;1.57;1.47;;;;;;;16.72;52.43;97687.78;7061899;28;20228;-81
2023/04/24 03:27:39;;;;;;;2.77;1.30;;;;;;;16.79;52.42;97675.56;7062031;28;20232;-80
2023/04/24 03:31:00;;;;;;;3.37;1.63;;;;;;;16.70;52.20;97649.16;7062666;28;20339;-82
2023/04/24 03:34:22;;;;;;;2.53;1.60;;;;;;;16.83;51.98;97643.16;7034191;28;20236;-81
2023/04/24 03:37:45;;;;;;;3.07;1.63;;;;;;;17.01;51.92;97697.91;7006967;28;20226;-81
2023/04/24 03:41:06;;;;;;;1.97;1.87;;;;;;;16.78;52.93;97692.97;7007266;28;20215;-81
2023/04/24 03:44:28;;;;;;;1.60;1.50;;;;;;;16.69;52.56;97689.16;7007696;28;20321;-81
2023/04/24 03:47:49;;;;;;;1.80;1.70;;;;;;;16.57;53.03;97693.25;7006390;28;20269;-81
2023/04/24 03:51:11;;;;;;;1.50;1.50;;;;;;;16.57;52.68;97687.78;7006018;28;20759;-81
2023/04/24 03:54:34;;;;;;;1.50;1.40;;;;;;;16.73;52.61;97700.31;7005212;28;20333;-81
2023/04/24 03:57:55;;;;;;;2.20;1.40;;;;;;;16.85;52.42;97698.97;7012797;28;21029;-81
2023/04/24 04:01:17;;;;;;;1.50;1.40;;;;;;;16.80;52.64;97695.44;7036214;28;20286;-80
2023/04/24 04:04:39;;;;;;;1.50;1.40;;;;;;;16.27;53.76;97674.09;7036869;28;20863;-81
2023/04/24 04:08:00;;;;;;;1.60;1.50;;;;;;;16.45;53.97;97679.06;7038507;28;20297;-80
2023/04/24 04:11:23;;;;;;;1.60;1.50;;;;;;;16.06;54.80;97683.28;7026347;28;20288;-80
2023/04/24 04:14:45;;;;;;;1.63;1.53;;;;;;;16.24;54.81;97702.66;7011519;28;20239;-80
2023/04/24 04:18:06;;;;;;;2.63;1.50;;;;;;;15.72;56.35;97685.59;7012237;28;20240;-80
2023/04/24 04:21:28;;;;;;;1.83;1.43;;;;;;;16.24;55.05;97694.50;7038747;28;20212;-80
2023/04/24 04:24:50;;;;;;;1.77;1.67;;;;;;;16.13;54.73;97692.81;7039244;28;20263;-80
2023/04/24 04:28:13;;;;;;;2.07;1.63;;;;;;;15.97;54.78;97636.75;7028568;28;20199;-81
2023/04/24 04:31:35;;;;;;;2.27;2.07;;;;;;;15.70;55.22;97705.94;7051995;28;20205;-81
2023/04/24 04:34:56;;;;;;;3.40;2.10;;;;;;;16.05;55.98;97739.53;7035985;28;20253;-81
2023/04/24 04:38:18;;;;;;;3.47;1.63;;;;;;;16.02;55.39;97728.38;7003425;28;20278;-81
2023/04/24 04:41:40;;;;;;;2.20;1.57;;;;;;;15.39;57.30;97750.31;7000549;28;20304;-81
2023/04/24 04:45:04;;;;;;;1.70;1.60;;;;;;;15.12;59.61;97784.81;7019702;28;20220;-81
2023/04/24 04:48:25;;;;;;;1.17;1.17;;;;;;;15.31;58.11;97786.06;7006603;28;20199;-82
2023/04/24 04:51:47;;;;;;;1.77;1.60;;;;;;;14.77;59.01;97785.31;7015308;28;20253;-81
2023/04/24 04:55:09;;;;;;;2.23;1.80;;;;;;;14.93;58.91;97800.66;7026490;28;20324;-81
2023/04/24 04:58:30;;;;;;;2.10;1.90;;;;;;;15.40;58.01;97807.06;7013660;28;20322;-81
2023/04/24 05:01:53;;;;;;;2.17;1.97;;;;;;;14.89;58.72;97787.88;7031163;28;20292;-81
2023/04/24 05:05:16;;;;;;;2.00;1.90;;;;;;;14.95;57.18;97822.13;7006952;28;20302;-81
2023/04/24 05:08:38;;;;;;;2.10;1.90;;;;;;;15.22;56.18;97826.44;7003791;28;20211;-81
2023/04/24 05:12:00;;;;;;;2.00;1.80;;;;;;;15.06;56.57;97823.84;7023065;28;20240;-81
2023/04/24 05:15:21;;;;;;;2.77;1.90;;;;;;;15.44;55.99;97819.06;7008577;28;20225;-81
2023/04/24 05:18:44;;;;;;;2.40;1.97;;;;;;;15.78;55.74;97844.03;7003331;28;20225;-81
2023/04/24 05:22:06;;;;;;;2.23;2.03;;;;;;;15.89;55.68;97851.19;7005995;28;20235;-81
2023/04/24 05:25:28;;;;;;;2.27;1.70;;;;;;;15.74;55.79;97845.66;7003518;28;20285;-81
2023/04/24 05:28:49;;;;;;;3.90;2.73;;;;;;;15.79;55.75;97846.50;7023564;28;20286;-81
2023/04/24 05:32:11;;;;;;;1.90;1.80;;;;;;;15.33;54.97;97862.72;7023281;28;20338;-81
2023/04/24 05:35:34;;;;;;;1.63;1.53;;;;;;;15.45;54.24;97872.31;7003548;28;20260;-81
2023/04/24 05:38:56;;;;;;;2.10;1.80;;;;;;;15.49;54.21;97845.44;7034943;28;20221;-81
2023/04/24 05:42:17;;;;;;;2.60;1.90;;;;;;;15.50;54.23;97871.53;7033183;28;20198;-81
2023/04/24 05:45:39;;;;;;;2.30;1.53;;;;;;;15.53;54.03;97888.16;7007704;28;20300;-81
2023/04/24 05:49:01;;;;;;;2.07;1.73;;;;;;;15.20;54.77;97879.38;7004218;28;20235;-81
2023/04/24 05:52:23;;;;;;;2.00;1.90;;;;;;;15.17;54.74;97888.84;7006760;28;20203;-82
2023/04/24 05:55:45;;;;;;;1.80;1.70;;;;;;;15.36;54.80;97895.59;7007873;28;20240;-81
2023/04/24 05:59:07;;;;;;;2.10;2.00;;;;;;;15.16;55.20;97897.28;7029909;28;20234;-82
2023/04/24 06:02:32;;;;;;;2.43;2.10;;;;;;;15.34;54.67;97916.75;7034448;28;20196;-81
2023/04/24 06:05:53;;;;;;;2.10;1.97;;;;;;;15.58;54.67;97890.91;7034886;28;20306;-81
2023/04/24 06:09:17;;;;;;;2.40;2.10;;;;;;;15.94;54.46;97911.88;7034644;28;20268;-82
2023/04/24 06:12:39;;;;;;;2.03;1.87;;;;;;;15.97;52.77;97881.44;7037106;28;20212;-81
2023/04/24 06:16:01;;;;;;;2.50;2.10;;;;;;;15.59;54.93;97843.66;7036076;28;20227;-81
2023/04/24 06:19:23;;;;;;;2.53;2.33;;;;;;;16.03;53.20;97913.00;7032760;28;20311;-81
2023/04/24 06:22:44;;;;;;;2.20;2.00;;;;;;;16.05;52.50;97915.47;7023800;28;20208;-80
2023/04/24 06:26:07;;;;;;;3.50;2.50;;;;;;;16.04;53.65;97917.38;7034545;28;20227;-82
2023/04/24 06:29:28;;;;;;;2.60;2.40;;;;;;;15.89;53.80;97883.81;7034812;28;20294;-82
2023/04/24 06:32:51;;;;;;;2.97;2.67;;;;;;;16.97;51.29;97905.63;7008728;28;20594;-82
2023/04/24 06:36:12;;;;;;;2.40;2.20;;;;;;;17.61;48.79;97894.09;7006015;28;20237;-83
2023/04/24 06:39:34;;;;;;;2.30;2.10;;;;;;;17.12;48.41;97777.69;7006156;28;20366;-83
2023/04/24 06:42:57;;;;;;;2.43;2.13;;;;;;;18.30;45.94;97894.31;7005670;28;20208;-83
2023/04/24 06:46:21;;;;;;;2.97;1.90;;;;;;;18.60;45.66;97891.53;7006356;28;20292;-81
2023/04/24 06:49:43;;;;;;;1.93;1.83;;;;;;;18.37;46.46;97851.19;7017587;28;20291;-82
2023/04/24 06:53:05;;;;;;;4.10;1.77;;;;;;;18.11;44.76;97798.59;7020583;28;20353;-82
2023/04/24 06:56:26;;;;;;;2.03;1.93;;;;;;;19.36;43.24;97887.38;7032242;28;20334;-83
2023/04/24 06:59:49;;;;;;;3.17;1.97;;;;;;;19.33;44.12;97902.41;7026713;28;20252;-83
2023/04/24 07:03:10;;;;;;;2.27;2.03;;;;;;;19.37;42.84;97903.50;7061971;28;20220;-83
2023/04/24 07:06:32;;;;;;;3.73;2.03;;;;;;;18.57;44.79;97905.75;7063115;28;20299;-83
2023/04/24 07:09:54;;;;;;;2.60;1.70;;;;;;;18.86;43.85;97904.81;7063736;28;20646;-81
2023/04/24 07:13:15;;;;;;;2.10;2.00;;;;;;;19.00;43.05;97810.25;7062632;28;20834;-82
2023/04/24 07:16:38;;;;;;;2.87;2.30;;;;;;;18.52;43.77;97900.31;7063609;28;20279;-83
2023/04/24 07:19:59;;;;;;;2.23;2.03;;;;;;;19.54;41.33;97873.03;7038577;28;20312;-82
2023/04/24 07:23:21;;;;;;;3.57;2.20;;;;;;;19.54;40.87;97883.97;7017277;28;20235;-84
2023/04/24 07:26:42;;;;;;;2.87;2.00;;;;;;;19.25;42.55;97878.44;7035032;28;20237;-83
2023/04/24 07:30:05;;;;;;;3.17;2.10;;;;;;;19.48;41.38;97890.56;7035127;28;20267;-83
2023/04/24 07:33:28;;;;;;;3.87;2.00;;;;;;;18.32;43.31;97881.22;7034785;28;20222;-82
2023/04/24 07:36:49;;;;;;;2.00;1.90;;;;;;;17.70;45.08;97889.72;7023584;28;20222;-82
2023/04/24 07:40:12;;;;;;;2.60;2.40;;;;;;;17.26;45.19;97921.25;7021008;28;20262;-81
2023/04/24 07:43:33;;;;;;;2.20;2.00;;;;;;;16.72;46.46;97908.25;7037556;28;20651;-82
2023/04/24 07:46:55;;;;;;;2.97;2.20;;;;;;;16.95;46.25;97924.16;7038131;28;20204;-81
2023/04/24 07:50:18;;;;;;;2.30;2.10;;;;;;;16.93;45.53;97910.00;7038558;28;20201;-82
2023/04/24 07:53:39;;;;;;;2.47;2.00;;;;;;;16.90;46.33;97916.78;7036664;28;20233;-82
2023/04/24 07:57:01;;;;;;;2.17;1.77;;;;;;;16.67;43.41;97933.56;7036641;28;20286;-82
2023/04/24 08:00:23;;;;;;;2.20;2.00;;;;;;;17.14;43.11;97931.59;7025873;28;20217;-82
2023/04/24 08:03:44;;;;;;;2.13;1.80;;;;;;;18.04;40.53;97920.00;7035623;28;20367;-83
2023/04/24 08:07:07;;;;;;;3.73;2.03;;;;;;;17.31;39.99;97948.53;7035570;28;20276;-82
2023/04/24 08:10:29;;;;;;;2.13;1.83;;;;;;;16.54;41.19;97958.53;7033962;28;20229;-83
2023/04/24 08:13:50;;;;;;;2.50;2.10;;;;;;;16.69;41.75;97965.97;7031916;28;20233;-82
2023/04/24 08:17:12;;;;;;;2.10;1.87;;;;;;;16.66;40.91;97953.72;7033145;28;20209;-82
2023/04/24 08:20:33;;;;;;;2.03;1.83;;;;;;;16.84;40.48;97966.88;7025411;28;20232;-82
2023/04/24 08:23:56;;;;;;;4.87;1.90;;;;;;;16.47;40.60;97973.44;7018632;28;20222;-82
2023/04/24 08:27:18;;;;;;;1.90;1.80;;;;;;;15.98;40.62;97964.63;7017565;28;20311;-82
2023/04/24 08:30:40;;;;;;;1.80;1.70;;;;;;;16.44;40.82;97982.97;7031188;28;20224;-83
2023/04/24 08:34:01;;;;;;;2.53;1.80;;;;;;;15.98;40.62;98004.59;7017666;28;20222;-82
2023/04/24 08:37:23;;;;;;;3.03;1.77;;;;;;;15.72;41.29;98002.72;7005666;28;20271;-82
2023/04/24 08:40:49;;;;;;;1.90;1.70;;;;;;;15.72;40.63;97926.63;7007523;28;20692;-82
2023/04/24 08:44:10;;;;;;;2.43;1.90;;;;;;;16.08;39.80;98008.22;7023803;28;20228;-83
2023/04/24 08:47:32;;;;;;;2.17;1.70;;;;;;;16.63;38.51;97995.03;7038292;28;20242;-83
2023/04/24 08:50:54;;;;;;;2.30;1.80;;;;;;;16.88;39.10;97999.81;7033395;28;20264;-81
2023/04/24 08:54:15;;;;;;;3.03;1.90;;;;;;;17.16;39.24;98010.31;7007011;28;20291;-82
2023/04/24 08:57:40;;;;;;;2.90;2.00;;;;;;;17.25;38.91;97992.34;7008505;28;20303;-83
2023/04/24 09:01:01;;;;;;;2.30;2.10;;;;;;;16.76;39.57;97991.84;7006296;28;20228;-82
2023/04/24 09:04:24;;;;;;;3.33;1.50;;;;;;;16.51;39.18;98018.13;7006531;28;20233;-82
2023/04/24 09:07:47;;;;;;;5.27;2.10;;;;;;;16.08;40.82;98008.22;7017681;28;20262;-82
2023/04/24 09:11:09;;;;;;;2.20;1.80;;;;;;;16.48;40.72;98000.41;7034667;28;20201;-82
2023/04/24 09:14:32;;;;;;;1.73;1.63;;;;;;;16.56;39.59;97999.91;7033906;28;20225;-82
2023/04/24 09:17:54;;;;;;;2.03;1.80;;;;;;;16.73;40.15;98003.28;7034861;28;20268;-82
2023/04/24 09:21:16;;;;;;;1.93;1.53;;;;;;;16.40;40.60;98003.59;7034218;28;20302;-82
2023/04/24 09:24:37;;;;;;;3.40;2.33;;;;;;;16.71;40.92;98010.06;7010423;28;20474;-82
2023/04/24 09:28:01;;;;;;;1.97;1.87;;;;;;;17.00;40.75;98030.38;7028878;28;20209;-82
2023/04/24 09:31:24;;;;;;;3.80;2.10;;;;;;;16.72;40.67;98039.75;7038114;28;20331;-82
2023/04/24 09:34:48;;;;;;;3.40;2.10;;;;;;;16.23;42.87;98029.28;7033378;28;20591;-82
2023/04/24 09:38:09;;;;;;;4.17;2.00;;;;;;;16.39;42.79;98053.66;7038923;28;20262;-81
2023/04/24 09:41:32;;;;;;;5.33;3.87;;;;;;;15.75;45.95;98056.56;7039013;28;20572;-83
2023/04/24 09:44:54;;;;;;;6.13;2.50;;;;;;;15.25;46.91;98026.06;7037905;28;20299;-83
2023/04/24 09:48:17;;;;;;;11.57;4.27;;;;;;;15.73;46.79;98075.84;7038195;28;20664;-83
2023/04/24 09:51:40;;;;;;;2.70;2.30;;;;;;;15.10;47.33;98013.13;7038266;28;20205;-85
2023/04/24 09:55:02;;;;;;;3.13;2.20;;;;;;;15.67;47.17;98055.13;7033483;28;20225;-88
2023/04/24 09:58:27;;;;;;;9.90;6.43;;;;;;;16.44;48.04;98066.47;7010021;28;20221;-85
2023/04/24 10:01:50;;;;;;;4.17;3.23;;;;;;;16.55;46.10;98077.19;7031714;28;20347;-86
2023/04/24 10:05:13;;;;;;;2.37;2.10;;;;;;;17.41;44.56;98081.28;7038026;28;20229;-86
2023/04/24 10:08:35;;;;;;;2.20;2.00;;;;;;;17.86;41.79;98079.53;7036655;28;20208;-85
2023/04/24 10:11:57;;;;;;;5.87;2.50;;;;;;;16.50;41.80;98028.16;7026087;28;20214;-83
2023/04/24 10:15:21;;;;;;;2.53;1.67;;;;;;;16.98;40.97;98084.31;7008427;28;20230;-83
2023/04/24 10:18:42;;;;;;;2.80;2.00;;;;;;;16.64;41.59;98097.38;7007425;28;20320;-84
2023/04/24 10:22:05;;;;;;;4.37;1.93;;;;;;;16.20;41.77;98074.13;7008541;28;20200;-84
2023/04/24 10:25:29;;;;;;;1.90;1.80;;;;;;;16.40;41.52;98098.81;7030343;28;20752;-88
2023/04/24 10:28:51;;;;;;;2.87;1.97;;;;;;;16.97;41.03;98075.31;7032715;28;20196;-85
2023/04/24 10:32:12;;;;;;;2.53;1.83;;;;;;;17.93;39.57;98085.53;7008698;28;20258;-86
2023/04/24 10:35:37;;;;;;;2.00;1.80;;;;;;;17.68;37.33;98011.06;7010975;28;20234;-87
2023/04/24 10:39:01;;;;;;;2.97;2.10;;;;;;;17.65;38.09;98091.47;7010585;28;20266;-84
2023/04/24 10:42:23;;;;;;;2.83;1.70;;;;;;;19.26;36.02;98073.28;7013101;28;20252;-86
2023/04/24 10:46:01;;;;;;;3.07;1.70;;;;;;;18.90;33.04;98085.34;7038502;28;20729;-87
2023/04/24 10:49:29;;;;;;;1.63;1.33;;;;;;;18.32;34.73;98085.91;7037747;28;20708;-83
2023/04/24 10:52:52;;;;;;;1.93;1.60;;;;;;;18.09;34.98;98083.66;7034064;28;20193;-88
2023/04/24 10:56:17;;;;;;;2.00;1.67;;;;;;;17.12;35.17;98099.09;7026554;28;20278;-86
2023/04/24 10:59:38;;;;;;;2.90;1.80;;;;;;;16.93;36.24;98106.06;7033029;28;20681;-81
2023/04/24 11:03:00;;;;;;;3.50;1.90;;;;;;;16.30;36.83;98079.69;7033960;28;20217;-82
2023/04/24 11:06:29;;;;;;;2.83;2.10;;;;;;;16.87;36.82;98094.28;7013147;28;20628;-83
2023/04/24 11:10:00;;;;;;;2.70;1.67;;;;;;;17.10;36.23;98107.50;7005797;28;20279;-82
2023/04/24 11:13:25;;;;;;;2.53;2.10;;;;;;;17.39;35.91;98097.09;7005771;28;20318;-82
2023/04/24 11:16:52;;;;;;;2.00;1.90;;;;;;;17.31;35.95;98097.53;7007131;28;20264;-81
2023/04/24 11:20:18;;;;;;;3.17;1.90;;;;;;;17.14;36.16;98105.91;7005429;28;20308;-81
2023/04/24 11:23:40;;;;;;;1.90;1.80;;;;;;;17.49;35.74;98117.03;7005376;28;20228;-82
2023/04/24 11:27:08;;;;;;;3.40;1.80;;;;;;;18.15;35.87;98123.50;7009362;28;20587;-82
2023/04/24 11:30:33;;;;;;;1.70;1.60;;;;;;;17.92;35.79;98122.09;7005425;28;20268;-82
2023/04/24 11:33:54;;;;;;;2.90;2.27;;;;;;;17.35;36.15;98117.75;7005226;28;20226;-83
2023/04/24 11:37:16;;;;;;;4.23;2.07;;;;;;;17.42;37.98;98137.44;7005801;28;20210;-81
2023/04/24 11:40:38;;;;;;;2.57;1.67;;;;;;;17.27;37.70;98148.22;7005044;28;20276;-82
2023/04/24 11:43:59;;;;;;;1.90;1.80;;;;;;;16.92;37.66;98048.03;7004533;28;20267;-82
2023/04/24 11:47:28;;;;;;;2.23;1.80;;;;;;;17.25;37.70;98144.91;7027482;28;20548;-82
2023/04/24 11:50:50;;;;;;;1.80;1.70;;;;;;;17.28;36.79;98136.25;7033988;28;20266;-84
2023/04/24 11:54:11;;;;;;;3.00;2.70;;;;;;;17.50;36.75;98151.38;7034339;28;20313;-85
2023/04/24 11:57:36;;;;;;;2.17;1.90;;;;;;;17.86;34.78;98146.91;7033679;28;20305;-81
2023/04/24 12:00:59;;;;;;;2.20;2.00;;;;;;;17.59;35.25;98154.41;7031691;28;20285;-83
2023/04/24 12:04:22;;;;;;;2.90;1.93;;;;;;;17.55;35.79;98139.66;7022591;28;20233;-83
2023/04/24 12:07:43;;;;;;;1.70;1.60;;;;;;;17.11;35.80;98100.97;7006183;28;20213;-84
2023/04/24 12:11:06;;;;;;;1.80;1.70;;;;;;;16.78;36.85;98138.59;7006108;28;20286;-83
2023/04/24 12:14:28;;;;;;;1.97;1.83;;;;;;;16.58;38.09;98171.09;7005102;28;20229;-83
2023/04/24 12:17:51;;;;;;;2.03;1.87;;;;;;;16.44;41.61;98165.25;7006761;28;20293;-84
2023/04/24 12:21:18;;;;;;;2.00;1.83;;;;;;;16.70;40.25;98178.00;7006247;28;20604;-83
2023/04/24 12:24:58;;;;;;;2.00;1.90;;;;;;;17.17;39.12;98178.91;7028595;28;20260;-84
2023/04/24 12:28:19;;;;;;;1.73;1.63;;;;;;;17.72;37.90;98159.38;7013137;28;20209;-85
2023/04/24 12:31:41;;;;;;;3.00;1.73;;;;;;;17.59;36.38;98170.78;7028831;28;20245;-83
2023/04/24 12:35:06;;;;;;;3.37;1.90;;;;;;;17.36;37.25;98171.16;7031771;28;20233;-83
2023/04/24 12:38:30;;;;;;;2.87;2.00;;;;;;;17.00;37.98;98169.28;7014401;28;20262;-83
2023/04/24 12:41:56;;;;;;;2.50;1.97;;;;;;;17.16;37.13;98146.50;7032689;28;20221;-83
2023/04/24 12:45:19;;;;;;;3.83;1.67;;;;;;;17.21;37.80;98160.19;7033360;28;20310;-84
2023/04/24 12:48:41;;;;;;;3.47;2.20;;;;;;;17.41;37.93;98160.31;7033611;28;20298;-81
2023/04/24 12:52:02;;;;;;;3.13;1.93;;;;;;;16.79;39.07;98124.72;7033103;28;20832;-81
2023/04/24 12:55:25;;;;;;;3.80;2.30;;;;;;;17.74;37.70;98149.84;7032817;28;20751;-83
2023/04/24 12:58:47;;;;;;;3.50;2.13;;;;;;;16.76;37.21;98166.06;7036927;28;20243;-81
2023/04/24 13:02:09;;;;;;;2.20;2.00;;;;;;;17.24;36.69;98174.09;7026168;28;20267;-82
2023/04/24 13:05:31;;;;;;;2.27;2.00;;;;;;;17.33;36.94;98158.88;7011282;28;20324;-82
2023/04/24 13:08:54;;;;;;;2.00;1.80;;;;;;;17.09;37.05;98152.19;7021924;28;20202;-82
2023/04/24 13:12:17;;;;;;;2.17;1.97;;;;;;;17.53;36.62;98150.84;7010533;28;20207;-82
2023/04/24 13:15:39;;;;;;;1.90;1.80;;;;;;;17.24;36.10;98080.63;7010515;28;20323;-82
2023/04/24 13:19:00;;;;;;;2.57;1.83;;;;;;;17.31;38.22;98138.41;7012621;28;20213;-84
2023/04/24 13:22:22;;;;;;;3.57;1.90;;;;;;;17.54;38.15;98181.63;7032683;28;20274;-81
2023/04/24 13:25:43;;;;;;;5.13;2.30;;;;;;;16.16;45.91;98191.88;7010978;28;20217;-81
2023/04/24 13:29:06;;;;;;;3.07;2.57;;;;;;;15.94;48.92;98199.22;7036627;28;20235;-81
2023/04/24 13:32:28;;;;;;;2.70;2.50;;;;;;;15.59;49.49;98207.75;7027807;28;20194;-81
2023/04/24 13:35:50;;;;;;;1.97;1.87;;;;;;;15.44;51.66;98193.09;7011183;28;20227;-81
2023/04/24 13:39:11;;;;;;;2.37;2.23;;;;;;;16.57;50.53;98177.63;7030394;28;20327;-81
2023/04/24 13:42:33;;;;;;;2.00;1.90;;;;;;;17.51;48.54;98182.19;7036938;28;20197;-81
2023/04/24 13:45:56;;;;;;;2.30;2.10;;;;;;;17.50;48.04;98172.34;7037092;28;20238;-81
2023/04/24 13:49:17;;;;;;;2.10;2.00;;;;;;;16.77;46.97;98090.69;7037361;28;20198;-81
2023/04/24 13:52:39;;;;;;;2.60;1.90;;;;;;;17.06;45.57;98143.72;7033524;28;20985;-81
2023/04/24 13:56:00;;;;;;;2.53;1.60;;;;;;;17.47;45.66;98165.53;7037249;28;20213;-81
2023/04/24 13:59:22;;;;;;;1.80;1.70;;;;;;;17.67;44.93;98171.09;7025170;28;20229;-83
2023/04/24 14:02:45;;;;;;;1.80;1.70;;;;;;;17.05;45.29;98153.78;7009311;28;20210;-81
2023/04/24 14:06:07;;;;;;;2.20;2.00;;;;;;;17.12;44.42;98165.28;7008899;28;20441;-81
2023/04/24 14:09:28;;;;;;;2.00;1.90;;;;;;;16.73;45.48;98171.22;7028399;28;20208;-83
2023/04/24 14:12:50;;;;;;;3.00;1.93;;;;;;;16.60;45.41;98196.16;7010244;28;20198;-81
2023/04/24 14:16:12;;;;;;;3.10;2.20;;;;;;;14.89;51.59;98203.94;7015737;28;20759;-82
2023/04/24 14:19:34;;;;;;;1.90;1.80;;;;;;;14.73;53.16;98198.50;7018122;28;20287;-82
2023/04/24 14:22:58;;;;;;;2.00;1.90;;;;;;;16.05;50.77;98212.66;7009124;28;20212;-83
2023/04/24 14:26:20;;;;;;;1.97;1.83;;;;;;;15.78;52.19;98205.53;7009226;28;20208;-82
2023/04/24 14:29:42;;;;;;;3.97;2.30;;;;;;;16.02;52.61;98202.31;7016878;28;20224;-81
2023/04/24 14:33:03;;;;;;;2.60;2.40;;;;;;;15.59;53.92;98174.31;7036562;28;20231;-82
2023/04/24 14:36:26;;;;;;;2.17;2.07;;;;;;;16.35;52.15;98176.84;7036914;28;20595;-82
2023/04/24 14:39:48;;;;;;;2.43;2.23;;;;;;;15.87;51.86;98177.66;7036825;28;20360;-82
2023/04/24 14:43:09;;;;;;;1.97;1.87;;;;;;;16.26;49.54;98143.84;7030722;28;20671;-86
2023/04/24 14:46:31;;;;;;;2.50;2.30;;;;;;;17.02;46.73;98197.88;7036308;28;20201;-81
2023/04/24 14:49:53;;;;;;;2.03;1.93;;;;;;;16.87;49.04;98200.47;7035982;28;20268;-82
2023/04/24 14:53:16;;;;;;;2.43;1.90;;;;;;;16.31;49.40;98198.28;7035632;28;20259;-81
2023/04/24 14:56:40;;;;;;;2.30;2.10;;;;;;;16.08;48.22;98200.47;7036629;28;20197;-83
2023/04/24 15:00:03;;;;;;;2.00;1.90;;;;;;;16.20;48.35;98177.50;7038307;28;20229;-81
2023/04/24 15:03:26;;;;;;;3.20;2.03;;;;;;;16.27;47.17;98186.28;7028884;28;20225;-81
2023/04/24 15:06:49;;;;;;;2.70;2.00;;;;;;;16.43;44.87;98195.44;7039502;28;20204;-82
2023/04/24 15:10:12;;;;;;;1.93;1.83;;;;;;;16.31;45.68;98195.56;7032664;28;20206;-86
2023/04/24 15:13:34;;;;;;;2.23;2.03;;;;;;;16.46;45.18;98184.06;7007011;28;20311;-82
2023/04/24 15:16:55;;;;;;;2.13;2.03;;;;;;;16.69;44.66;98189.19;7035867;28;20688;-83
2023/04/24 15:20:17;;;;;;;2.77;2.20;;;;;;;17.36;44.36;98176.59;7019764;28;20348;-84
2023/04/24 15:23:39;;;;;;;2.97;1.90;;;;;;;17.00;44.21;98185.63;7036522;28;20213;-82
2023/04/24 15:27:02;;;;;;;2.37;2.17;;;;;;;16.46;44.26;98165.00;7035321;28;20292;-84
2023/04/24 15:30:24;;;;;;;2.50;2.30;;;;;;;16.63;44.29;98187.50;7007801;28;20197;-83
2023/04/24 15:33:46;;;;;;;2.30;2.10;;;;;;;17.23;42.94;98204.31;7013021;28;20318;-84
2023/04/24 15:37:07;;;;;;;2.27;2.03;;;;;;;16.57;43.13;98170.28;7017272;28;20398;-84
2023/04/24 15:40:29;;;;;;;2.50;2.30;;;;;;;17.12;43.82;98192.53;7006082;28;20236;-82
2023/04/24 15:43:52;;;;;;;3.13;2.20;;;;;;;17.28;43.02;98196.19;7008229;28;20246;-83
2023/04/24 15:47:13;;;;;;;2.77;2.57;;;;;;;17.20;43.68;98200.22;7021599;28;20238;-83
2023/04/24 15:50:35;;;;;;;2.77;2.57;;;;;;;16.58;43.98;98195.59;7034864;28;20273;-83
2023/04/24 15:53:57;;;;;;;5.50;3.70;;;;;;;17.00;44.05;98221.03;7006489;28;20244;-85